This is the latest recevied weather packets stored in our database for station/object EA5DFV. If no packets are shown the sender has not sent any weather packets the latest 10 day(s).
| Time | Temp. | Humidity | Pressure | Rain* | Wind** | Luminosity | Snow |
|---|---|---|---|---|---|---|---|
| 1777986203 | 18.89° C | 82% | 1010.1 hPa | 8.89 mm | - | 211 W/m² | - |
| 1777985914 | 18.89° C | 83% | 1010.2 hPa | 8.89 mm | - | 250 W/m² | - |
| 1777985605 | 18.89° C | 82% | 1010.2 hPa | 8.89 mm | - | 214 W/m² | - |
| 1777985315 | 18.89° C | 82% | 1010.3 hPa | 7.87 mm | - | 192 W/m² | - |
| 1777985009 | 18.89° C | 82% | 1010.4 hPa | 7.87 mm | - | 232 W/m² | - |
| 1777984702 | 18.89° C | 81% | 1010.5 hPa | 7.87 mm | - | 195 W/m² | - |
| 1777984417 | 18.89° C | 81% | 1010.6 hPa | 7.87 mm | - | 186 W/m² | - |
| 1777984108 | 19.44° C | 80% | 1010.5 hPa | 7.87 mm | - | 123 W/m² | - |
| 1777983798 | 20° C | 79% | 1010.5 hPa | 6.1 mm | - | 144 W/m² | - |
| 1777983512 | 20.56° C | 76% | 1010.5 hPa | 6.1 mm | - | 167 W/m² | - |
| 1777983202 | 21.11° C | 75% | 1010.6 hPa | 2.03 mm | - | 174 W/m² | - |
| 1777982913 | 21.67° C | 71% | 1010.6 hPa | 0 mm | - | 91 W/m² | - |
| 1777982603 | 22.22° C | 68% | 1010.4 hPa | 0 mm | - | 125 W/m² | - |
| 1777982313 | 22.78° C | 66% | 1010.5 hPa | 0 mm | - | 114 W/m² | - |
| 1777982008 | 23.33° C | 65% | 1010.3 hPa | 0 mm | - | 151 W/m² | - |
| 1777981704 | 23.33° C | 58% | 1010.4 hPa | 0 mm | - | 202 W/m² | - |
| 1777981415 | 23.33° C | 47% | 1010.5 hPa | 0 mm | - | 355 W/m² | - |
| 1777981105 | 23.89° C | 44% | 1010.6 hPa | 0 mm | - | 220 W/m² | - |
| 1777980799 | 23.89° C | 44% | 1010.6 hPa | 0 mm | - | 209 W/m² | - |
| 1777980513 | 24.44° C | 43% | 1010.5 hPa | 0 mm | - | 374 W/m² | - |
| 1777980202 | 24.44° C | 44% | 1010.5 hPa | 0 mm | - | 527 W/m² | - |
| 1777979913 | 23.89° C | 44% | 1010.7 hPa | 0 mm | - | 360 W/m² | - |
| 1777979611 | 23.89° C | 46% | 1010.8 hPa | 0 mm | - | 373 W/m² | - |
| 1777979301 | 24.44° C | 50% | 1010.8 hPa | 0 mm | - | 1134 W/m² | - |
| 1777979014 | 24.44° C | 50% | 1010.8 hPa | 0 mm | - | 301 W/m² | - |
* Rain latest hour (hover to see other rain measurements)
** Current wind speed in m/s (hover to see current wind gust speed)